Time;durP1;ratioP1;P1;durP2;ratioP2;P2;SDS_P1;SDS_P2;PMS_P1;PMS_P2;Temp;Humidity;BMP_temperature;BMP_pressure;BME280_temperature;BME280_humidity;BME280_pressure;Samples;Min_cycle;Max_cycle;Signal;HPM_P1;HPM_P2
2021/07/18 00:02:05;;;;;;;18.95;12.75;;;21.10;80.70;;;;;;5187205;27;27423;-61
2021/07/18 00:04:55;;;;;;;18.88;12.40;;;21.10;80.70;;;;;;5186963;27;28085;-61
2021/07/18 00:07:42;;;;;;;16.92;11.52;;;21.10;80.70;;;;;;5186364;27;27331;-61
2021/07/18 00:10:29;;;;;;;15.52;11.77;;;21.10;80.70;;;;;;5185392;27;27385;-61
2021/07/18 00:13:17;;;;;;;16.52;11.95;;;21.10;80.70;;;;;;5185996;27;27354;-61
2021/07/18 00:16:05;;;;;;;18.02;12.50;;;21.10;80.50;;;;;;5186913;27;27991;-62
2021/07/18 00:18:52;;;;;;;17.30;11.45;;;21.00;80.50;;;;;;5185987;27;27526;-61
2021/07/18 00:21:44;;;;;;;18.58;11.77;;;21.00;80.50;;;;;;5186723;27;27464;-60
2021/07/18 00:24:31;;;;;;;16.40;12.32;;;21.00;80.50;;;;;;5186769;27;27465;-61
2021/07/18 00:27:17;;;;;;;24.90;12.93;;;21.00;80.60;;;;;;5185916;27;27883;-60
2021/07/18 00:30:06;;;;;;;14.43;11.02;;;20.90;80.50;;;;;;5186759;27;27322;-61
2021/07/18 00:32:57;;;;;;;18.27;12.13;;;21.00;80.50;;;;;;5152650;27;27461;-61
2021/07/18 00:35:47;;;;;;;16.85;11.15;;;21.00;80.50;;;;;;5171819;27;27328;-62
2021/07/18 00:38:34;;;;;;;15.23;11.45;;;20.90;80.50;;;;;;5185069;27;27546;-60
2021/07/18 00:41:22;;;;;;;17.95;11.23;;;20.90;80.40;;;;;;5185674;27;27458;-61
2021/07/18 00:44:13;;;;;;;14.82;10.90;;;20.90;80.50;;;;;;5186621;27;27358;-61
2021/07/18 00:47:02;;;;;;;17.63;10.98;;;20.80;80.40;;;;;;5170970;27;27460;-61
2021/07/18 00:49:49;;;;;;;14.68;10.38;;;20.90;80.20;;;;;;5173187;27;27400;-60
2021/07/18 00:52:37;;;;;;;12.23;10.05;;;20.80;80.20;;;;;;5174419;27;27396;-64
2021/07/18 00:55:26;;;;;;;17.50;10.77;;;20.80;80.20;;;;;;5185672;27;27405;-61
2021/07/18 00:58:14;;;;;;;14.68;10.60;;;20.80;80.30;;;;;;5160219;27;27372;-60
2021/07/18 01:01:00;;;;;;;13.82;10.55;;;20.80;80.40;;;;;;5173427;27;27419;-61
2021/07/18 01:03:50;;;;;;;13.15;9.68;;;20.80;80.40;;;;;;5188677;27;27627;-61
2021/07/18 01:06:38;;;;;;;16.60;10.82;;;20.70;80.20;;;;;;5174562;27;27404;-61
2021/07/18 01:09:24;;;;;;;14.23;9.43;;;20.70;80.30;;;;;;5174549;27;27405;-61
2021/07/18 01:12:11;;;;;;;12.48;9.20;;;20.70;80.20;;;;;;5189353;27;27336;-60
2021/07/18 01:14:59;;;;;;;12.73;9.70;;;20.70;80.20;;;;;;5189413;27;27436;-61
2021/07/18 01:17:47;;;;;;;15.25;9.48;;;20.70;80.00;;;;;;5189053;27;27420;-62
2021/07/18 01:20:35;;;;;;;11.85;9.32;;;20.70;80.00;;;;;;5174412;27;27348;-61
2021/07/18 01:23:21;;;;;;;16.35;9.30;;;20.60;79.90;;;;;;5174122;27;27439;-62
2021/07/18 01:26:08;;;;;;;13.80;8.30;;;20.60;79.70;;;;;;5188512;27;27497;-61
2021/07/18 01:28:56;;;;;;;13.38;9.55;;;20.60;79.90;;;;;;5188846;27;27521;-61
2021/07/18 01:31:47;;;;;;;11.85;9.70;;;20.60;79.70;;;;;;5185197;27;27369;-61
2021/07/18 01:34:34;;;;;;;12.85;8.43;;;20.60;79.70;;;;;;5185078;27;27457;-61
2021/07/18 01:37:21;;;;;;;10.00;8.13;;;20.60;79.60;;;;;;5159545;27;27465;-61
2021/07/18 01:40:10;;;;;;;11.15;8.65;;;20.50;79.50;;;;;;5189469;27;27435;-61
2021/07/18 01:43:06;;;;;;;10.43;9.25;;;20.50;79.50;;;;;;5188337;27;27424;-61
2021/07/18 01:45:53;;;;;;;13.00;8.73;;;20.50;79.50;;;;;;5159695;27;27844;-60
2021/07/18 01:48:41;;;;;;;10.50;7.93;;;20.50;79.20;;;;;;5188162;27;27490;-61
2021/07/18 01:51:29;;;;;;;10.55;7.20;;;20.40;79.00;;;;;;5159192;27;27397;-61
2021/07/18 01:54:17;;;;;;;12.88;7.53;;;20.40;78.90;;;;;;5188909;27;27330;-61
2021/07/18 01:57:17;;;;;;;10.07;7.18;;;20.40;78.90;;;;;;5188450;27;27413;-61
2021/07/18 02:00:06;;;;;;;11.55;6.88;;;20.40;78.80;;;;;;5172677;27;27387;-60
2021/07/18 02:02:58;;;;;;;12.23;7.35;;;20.40;78.70;;;;;;5188776;27;26965;-60
2021/07/18 02:05:47;;;;;;;7.88;6.35;;;20.40;78.60;;;;;;5188199;27;27376;-61
2021/07/18 02:08:33;;;;;;;8.60;6.93;;;20.30;78.60;;;;;;5173465;27;27436;-61
2021/07/18 02:11:21;;;;;;;12.02;7.72;;;20.30;78.60;;;;;;5188458;27;27428;-61
2021/07/18 02:14:07;;;;;;;12.30;7.50;;;20.30;78.60;;;;;;5173292;27;27384;-61
2021/07/18 02:16:55;;;;;;;10.82;7.78;;;20.30;78.60;;;;;;5187879;27;27360;-61
2021/07/18 02:19:42;;;;;;;12.60;7.88;;;20.20;78.70;;;;;;5173099;27;27462;-61
2021/07/18 02:22:46;;;;;;;14.63;7.45;;;20.20;78.80;;;;;;5188394;27;27508;-61
2021/07/18 02:25:33;;;;;;;10.15;7.47;;;20.20;78.60;;;;;;5187487;27;27498;-61
2021/07/18 02:28:20;;;;;;;12.48;6.93;;;20.20;78.70;;;;;;5187524;27;27478;-60
2021/07/18 02:31:09;;;;;;;10.27;6.60;;;20.20;78.60;;;;;;5188108;27;27463;-62
2021/07/18 02:33:56;;;;;;;9.52;7.60;;;20.10;78.50;;;;;;5188465;27;27431;-62
2021/07/18 02:36:48;;;;;;;7.47;6.63;;;20.10;78.50;;;;;;5188185;27;27417;-62
2021/07/18 02:39:35;;;;;;;13.20;7.22;;;20.10;78.50;;;;;;5169212;27;27385;-61
2021/07/18 02:42:23;;;;;;;12.07;7.35;;;20.10;78.60;;;;;;5172583;27;27843;-62
2021/07/18 02:45:11;;;;;;;9.07;6.65;;;20.10;78.50;;;;;;5172481;27;27497;-62
2021/07/18 02:47:58;;;;;;;10.95;7.40;;;20.00;78.30;;;;;;5187561;27;27409;-61
2021/07/18 02:50:45;;;;;;;8.02;7.22;;;20.00;78.30;;;;;;5172160;27;27377;-60
2021/07/18 02:53:32;;;;;;;14.35;7.88;;;20.00;78.40;;;;;;5172839;27;27952;-60
2021/07/18 02:56:19;;;;;;;11.68;6.90;;;20.00;78.30;;;;;;5188083;27;27521;-60
2021/07/18 02:59:12;;;;;;;11.52;6.70;;;20.00;78.30;;;;;;5186848;27;27494;-61
2021/07/18 03:01:59;;;;;;;10.25;6.80;;;20.00;78.40;;;;;;5168821;27;27426;-60
2021/07/18 03:04:47;;;;;;;11.02;7.25;;;20.00;78.30;;;;;;5172764;27;27437;-61
2021/07/18 03:07:38;;;;;;;10.90;8.05;;;20.00;78.30;;;;;;5186860;27;27400;-60
2021/07/18 03:10:25;;;;;;;14.38;7.82;;;19.90;78.10;;;;;;5172999;27;27474;-61
2021/07/18 03:13:11;;;;;;;8.73;6.80;;;19.90;78.20;;;;;;5185206;27;27457;-60
2021/07/18 03:15:58;;;;;;;8.95;6.53;;;19.90;78.20;;;;;;5187792;27;27866;-60
2021/07/18 03:18:45;;;;;;;9.15;6.97;;;19.90;78.20;;;;;;5157256;27;27405;-60
2021/07/18 03:21:34;;;;;;;9.43;7.28;;;19.90;78.10;;;;;;5187963;27;27405;-61
2021/07/18 03:24:20;;;;;;;9.85;6.25;;;19.80;78.10;;;;;;5187492;27;27431;-60
2021/07/18 03:27:07;;;;;;;13.57;7.45;;;19.80;77.80;;;;;;5187462;27;27967;-61
2021/07/18 03:29:54;;;;;;;9.98;6.32;;;19.80;78.60;;;;;;5187367;27;27407;-60
2021/07/18 03:32:41;;;;;;;9.45;6.38;;;19.80;77.80;;;;;;5187233;27;27358;-60
2021/07/18 03:35:27;;;;;;;10.40;7.80;;;19.80;77.70;;;;;;5153832;27;26957;-61
2021/07/18 03:38:14;;;;;;;17.55;7.43;;;19.70;77.60;;;;;;5187188;27;27975;-61
2021/07/18 03:41:02;;;;;;;15.43;7.28;;;19.70;77.50;;;;;;5186284;27;27430;-60
2021/07/18 03:43:52;;;;;;;8.05;6.53;;;19.70;77.40;;;;;;5172251;27;27339;-61
2021/07/18 03:46:40;;;;;;;11.98;7.45;;;19.70;77.40;;;;;;5187482;27;27422;-60
2021/07/18 03:49:26;;;;;;;9.68;6.72;;;19.70;77.30;;;;;;5186550;27;27421;-61
2021/07/18 03:52:13;;;;;;;9.65;6.20;;;19.70;77.30;;;;;;5186185;27;27390;-60
2021/07/18 03:55:00;;;;;;;11.45;6.68;;;19.70;77.20;;;;;;5187399;27;27314;-61
2021/07/18 03:57:47;;;;;;;9.30;6.95;;;19.60;77.00;;;;;;5182898;27;27331;-60
2021/07/18 04:00:34;;;;;;;8.93;5.97;;;19.60;77.00;;;;;;5170739;27;27467;-61
2021/07/18 04:03:20;;;;;;;12.15;6.20;;;19.60;77.00;;;;;;5168161;27;27463;-62
2021/07/18 04:06:07;;;;;;;10.20;6.72;;;19.60;76.90;;;;;;5186630;27;27128;-61
2021/07/18 04:08:54;;;;;;;8.52;6.70;;;19.50;76.90;;;;;;5187444;27;27327;-61
2021/07/18 04:11:40;;;;;;;8.88;7.05;;;19.60;76.90;;;;;;5185521;27;27352;-60
2021/07/18 04:14:27;;;;;;;10.38;6.68;;;19.50;76.90;;;;;;5187154;27;27496;-60
2021/07/18 04:17:14;;;;;;;9.43;6.38;;;19.50;76.90;;;;;;5186385;27;27429;-60
2021/07/18 04:20:01;;;;;;;10.73;6.80;;;19.50;77.00;;;;;;5182685;27;27418;-61
2021/07/18 04:22:48;;;;;;;12.50;6.15;;;19.50;77.00;;;;;;5186997;27;27385;-61
2021/07/18 04:25:36;;;;;;;10.07;5.95;;;19.50;77.10;;;;;;5172006;27;27400;-60
2021/07/18 04:28:23;;;;;;;10.35;5.85;;;19.50;77.20;;;;;;5175270;27;27421;-61
2021/07/18 04:31:10;;;;;;;9.25;6.15;;;19.50;77.30;;;;;;5190601;27;26868;-60
2021/07/18 04:33:57;;;;;;;9.38;6.72;;;19.40;77.30;;;;;;5189265;27;28084;-61
2021/07/18 04:36:44;;;;;;;7.70;5.85;;;19.50;77.40;;;;;;5171770;27;27434;-61
2021/07/18 04:39:30;;;;;;;6.60;5.70;;;19.40;77.40;;;;;;5189572;27;27338;-63
2021/07/18 04:42:17;;;;;;;8.27;5.78;;;19.40;77.40;;;;;;5189567;27;27343;-61
2021/07/18 04:45:04;;;;;;;7.97;6.07;;;19.40;77.60;;;;;;5189231;27;27967;-61
2021/07/18 04:47:53;;;;;;;11.05;7.03;;;19.40;77.70;;;;;;5189201;27;27439;-62
2021/07/18 04:50:39;;;;;;;11.65;5.97;;;19.40;77.80;;;;;;5174860;27;27375;-61
2021/07/18 04:53:26;;;;;;;8.63;5.88;;;19.40;78.00;;;;;;5174594;27;27406;-62
2021/07/18 04:56:14;;;;;;;13.15;6.07;;;19.40;78.10;;;;;;5190049;27;27416;-61
2021/07/18 04:59:09;;;;;;;9.00;5.80;;;19.40;78.20;;;;;;5174866;27;27441;-61
2021/07/18 05:01:56;;;;;;;7.13;5.35;;;19.40;78.50;;;;;;5189899;27;26858;-61
2021/07/18 05:04:43;;;;;;;7.53;5.35;;;19.40;78.40;;;;;;5189718;27;27383;-61
2021/07/18 05:07:30;;;;;;;7.18;5.25;;;19.40;78.40;;;;;;5189188;27;27380;-62
2021/07/18 05:10:19;;;;;;;5.80;4.50;;;19.40;78.50;;;;;;5189738;27;27477;-61
2021/07/18 05:13:06;;;;;;;10.35;5.38;;;19.40;78.70;;;;;;5188624;27;27554;-61
2021/07/18 05:15:54;;;;;;;7.80;5.20;;;19.40;78.80;;;;;;5174476;27;27395;-61
2021/07/18 05:18:41;;;;;;;10.02;5.55;;;19.40;79.00;;;;;;5189892;27;27354;-61
2021/07/18 05:21:29;;;;;;;6.85;5.47;;;19.40;79.10;;;;;;5189734;27;27433;-61
2021/07/18 05:24:16;;;;;;;6.25;4.65;;;19.40;79.20;;;;;;5174142;27;27486;-60
2021/07/18 05:27:04;;;;;;;6.50;5.20;;;19.40;79.40;;;;;;5189622;27;27337;-61
2021/07/18 05:29:51;;;;;;;7.72;4.80;;;19.40;79.50;;;;;;5170640;27;28019;-61
2021/07/18 05:32:39;;;;;;;6.50;4.72;;;19.40;79.70;;;;;;5173344;27;27498;-61
2021/07/18 05:35:26;;;;;;;7.60;4.88;;;19.40;79.80;;;;;;5188310;27;27421;-61
2021/07/18 05:38:13;;;;;;;6.13;4.88;;;19.40;80.00;;;;;;5188529;27;27333;-60
2021/07/18 05:41:00;;;;;;;6.90;4.75;;;19.50;80.10;;;;;;5188453;27;27883;-61
2021/07/18 05:43:47;;;;;;;5.78;4.50;;;19.50;80.20;;;;;;5189460;27;27360;-61
2021/07/18 05:46:34;;;;;;;5.57;4.05;;;19.50;80.50;;;;;;5189181;27;27527;-61
2021/07/18 05:49:22;;;;;;;5.88;4.13;;;19.50;80.50;;;;;;5189257;27;27437;-62
2021/07/18 05:52:09;;;;;;;7.20;4.72;;;19.50;80.70;;;;;;5188863;27;28030;-62
2021/07/18 05:54:56;;;;;;;5.45;4.05;;;19.60;80.70;;;;;;5188310;27;27457;-61
2021/07/18 05:57:44;;;;;;;5.60;4.20;;;19.60;80.80;;;;;;5188917;27;27441;-61
2021/07/18 06:00:34;;;;;;;9.63;4.68;;;19.60;80.90;;;;;;5187640;27;27373;-61
2021/07/18 06:03:20;;;;;;;5.05;3.60;;;19.70;81.20;;;;;;5188422;27;27446;-62
2021/07/18 06:06:10;;;;;;;7.10;4.25;;;19.70;81.10;;;;;;5173334;27;27360;-61
2021/07/18 06:09:00;;;;;;;6.18;3.85;;;19.80;81.40;;;;;;5188377;27;27426;-60
2021/07/18 06:11:53;;;;;;;5.93;3.40;;;20.00;81.30;;;;;;5173535;27;27478;-61
2021/07/18 06:14:43;;;;;;;4.38;3.03;;;20.20;81.30;;;;;;5188396;27;27388;-61
2021/07/18 06:17:31;;;;;;;4.07;3.22;;;20.30;81.40;;;;;;5188310;27;27479;-62
2021/07/18 06:20:19;;;;;;;7.38;4.07;;;20.50;81.00;;;;;;5188035;27;27382;-61
2021/07/18 06:23:10;;;;;;;6.78;3.33;;;20.70;80.40;;;;;;5173681;27;27343;-62
2021/07/18 06:25:57;;;;;;;4.20;2.97;;;20.80;80.20;;;;;;5188152;27;27427;-61
2021/07/18 06:28:51;;;;;;;7.70;3.00;;;21.00;80.80;;;;;;5188548;27;27483;-63
2021/07/18 06:31:43;;;;;;;5.85;3.60;;;21.20;79.80;;;;;;5156402;27;27491;-62
2021/07/18 06:34:32;;;;;;;5.47;3.33;;;21.40;78.70;;;;;;5169568;27;27505;-62
2021/07/18 06:37:20;;;;;;;5.70;3.15;;;21.50;78.10;;;;;;5188399;27;27330;-62
2021/07/18 06:40:11;;;;;;;9.05;4.07;;;21.70;77.30;;;;;;5188314;27;27358;-61
2021/07/18 06:43:02;;;;;;;13.20;3.70;;;21.80;77.10;;;;;;5187955;27;27342;-62
2021/07/18 06:45:52;;;;;;;11.73;3.83;;;22.00;76.90;;;;;;5187539;27;27412;-63
2021/07/18 06:48:40;;;;;;;5.45;2.97;;;22.20;76.90;;;;;;5187770;27;27403;-62
2021/07/18 06:51:34;;;;;;;5.60;2.50;;;22.30;76.50;;;;;;5169701;27;27440;-62
2021/07/18 06:54:28;;;;;;;4.88;3.28;;;22.50;76.10;;;;;;5187009;27;27508;-63
2021/07/18 06:57:20;;;;;;;8.07;3.40;;;22.70;75.80;;;;;;5169299;27;27381;-63
2021/07/18 07:00:09;;;;;;;10.40;4.25;;;22.90;75.00;;;;;;5141873;27;27884;-63
2021/07/18 07:02:56;;;;;;;6.13;2.88;;;23.00;74.30;;;;;;5172810;27;27388;-63
2021/07/18 07:05:42;;;;;;;4.03;2.58;;;23.10;73.80;;;;;;5172817;27;27783;-63
2021/07/18 07:08:29;;;;;;;4.75;2.95;;;23.20;74.00;;;;;;5187970;27;27470;-63
2021/07/18 07:11:17;;;;;;;5.47;2.33;;;23.40;74.10;;;;;;5172595;27;27890;-62
2021/07/18 07:14:04;;;;;;;6.63;2.65;;;23.50;72.80;;;;;;5187270;27;27508;-62
2021/07/18 07:16:51;;;;;;;7.57;2.60;;;23.60;72.90;;;;;;5186959;27;27410;-63
2021/07/18 07:19:38;;;;;;;4.40;2.75;;;23.70;73.80;;;;;;5187834;27;27591;-63
2021/07/18 07:22:34;;;;;;;8.82;2.72;;;23.90;74.10;;;;;;5172675;27;27499;-63
2021/07/18 07:25:23;;;;;;;3.90;2.33;;;24.00;72.70;;;;;;5169532;27;27361;-64
2021/07/18 07:28:12;;;;;;;6.38;1.98;;;24.10;71.70;;;;;;5186930;27;27407;-64
2021/07/18 07:31:05;;;;;;;8.48;2.35;;;24.30;71.50;;;;;;5187518;27;27482;-63
2021/07/18 07:33:56;;;;;;;3.78;2.08;;;24.40;72.30;;;;;;5187683;27;27405;-63
2021/07/18 07:36:51;;;;;;;3.60;1.95;;;24.60;72.60;;;;;;5187857;27;27335;-64
2021/07/18 07:39:43;;;;;;;4.25;2.03;;;24.80;72.20;;;;;;5140328;27;27349;-63
2021/07/18 07:42:30;;;;;;;2.45;2.15;;;25.00;71.10;;;;;;5187532;27;27531;-63
2021/07/18 07:45:18;;;;;;;11.70;2.13;;;25.10;70.60;;;;;;5187619;27;27445;-64
2021/07/18 07:48:08;;;;;;;3.72;1.88;;;25.30;69.70;;;;;;5187092;27;27396;-63
2021/07/18 07:50:57;;;;;;;3.45;2.00;;;25.40;69.20;;;;;;5187464;27;27406;-63
2021/07/18 07:53:50;;;;;;;6.20;2.38;;;25.60;69.80;;;;;;5186784;27;27404;-64
2021/07/18 07:56:40;;;;;;;5.43;2.10;;;25.70;69.90;;;;;;5186717;27;28043;-63
2021/07/18 07:59:34;;;;;;;5.53;2.10;;;25.90;70.00;;;;;;5186358;27;27605;-63
2021/07/18 08:02:25;;;;;;;7.75;2.28;;;26.10;68.60;;;;;;5159159;27;27366;-63
2021/07/18 08:05:13;;;;;;;10.35;1.80;;;26.20;67.00;;;;;;5172161;27;27425;-64
2021/07/18 08:08:07;;;;;;;4.22;1.92;;;26.40;67.30;;;;;;5182880;27;27343;-63
2021/07/18 08:10:59;;;;;;;4.97;1.80;;;26.60;67.80;;;;;;5186225;27;27398;-63
2021/07/18 08:13:55;;;;;;;2.75;1.83;;;26.80;66.90;;;;;;5186190;27;27449;-63
2021/07/18 08:16:46;;;;;;;4.22;1.85;;;27.00;66.00;;;;;;5186188;27;27377;-63
2021/07/18 08:19:42;;;;;;;5.50;2.15;;;27.20;65.10;;;;;;5172293;27;27416;-64
2021/07/18 08:22:33;;;;;;;4.05;2.33;;;27.40;64.00;;;;;;5172658;27;27470;-63
2021/07/18 08:25:26;;;;;;;7.10;1.90;;;27.50;64.40;;;;;;5186999;27;27420;-63
2021/07/18 08:28:22;;;;;;;8.05;2.20;;;27.70;64.80;;;;;;5187613;27;27342;-64
2021/07/18 08:31:17;;;;;;;3.17;1.40;;;27.70;63.00;;;;;;5187397;27;27317;-65
2021/07/18 08:34:12;;;;;;;4.13;2.22;;;27.50;62.90;;;;;;5173012;27;27475;-63
2021/07/18 08:37:02;;;;;;;4.68;1.98;;;27.50;63.00;;;;;;5186753;27;27338;-63
2021/07/18 08:39:54;;;;;;;4.07;2.13;;;27.60;64.10;;;;;;5183413;27;27429;-65
2021/07/18 08:42:57;;;;;;;6.05;1.70;;;27.70;62.80;;;;;;5185399;27;27963;-64
2021/07/18 08:45:50;;;;;;;3.38;2.08;;;27.90;63.80;;;;;;5186680;27;27375;-66
2021/07/18 08:48:38;;;;;;;7.50;2.22;;;28.20;65.10;;;;;;5186924;27;27424;-65
2021/07/18 08:51:26;;;;;;;4.15;2.22;;;28.40;63.00;;;;;;5186856;27;27389;-64
2021/07/18 08:54:25;;;;;;;5.65;2.53;;;28.60;60.50;;;;;;5172159;27;27882;-64
2021/07/18 08:57:39;;;;;;;6.35;2.17;;;28.70;62.60;;;;;;5187146;27;27402;-64
2021/07/18 09:00:53;;;;;;;3.05;2.05;;;28.90;62.90;;;;;;5185560;27;27631;-64
2021/07/18 09:03:47;;;;;;;9.38;2.00;;;29.00;62.70;;;;;;5187129;27;27383;-64
2021/07/18 09:07:08;;;;;;;8.73;2.05;;;29.10;63.70;;;;;;5182945;27;27469;-64
2021/07/18 09:10:44;;;;;;;5.63;2.25;;;29.30;60.60;;;;;;5187617;27;27456;-62
2021/07/18 09:13:43;;;;;;;5.28;2.00;;;29.40;59.00;;;;;;5179146;27;27412;-62
2021/07/18 09:17:00;;;;;;;5.07;2.10;;;29.50;60.00;;;;;;5175892;27;27447;-62
2021/07/18 09:19:57;;;;;;;3.25;2.13;;;29.70;60.50;;;;;;5165766;27;27457;-62
2021/07/18 09:22:47;;;;;;;7.50;2.53;;;29.80;59.70;;;;;;5190424;27;27387;-61
2021/07/18 09:26:24;;;;;;;4.90;2.17;;;29.90;61.20;;;;;;5175219;27;27016;-61
2021/07/18 09:29:59;;;;;;;5.47;2.30;;;30.10;60.00;;;;;;5190188;27;27329;-62
2021/07/18 09:32:45;;;;;;;4.45;2.00;;;30.20;59.00;;;;;;5190210;27;27450;-60
2021/07/18 09:35:30;;;;;;;2.75;1.95;;;30.10;59.70;;;;;;5190155;27;27503;-61
2021/07/18 09:38:22;;;;;;;5.72;1.92;;;30.10;60.50;;;;;;5158956;27;27434;-61
2021/07/18 09:41:07;;;;;;;3.45;2.10;;;30.00;60.10;;;;;;5189252;27;27434;-61
2021/07/18 09:43:58;;;;;;;4.30;2.17;;;29.90;62.80;;;;;;5190290;27;27370;-61
2021/07/18 09:46:43;;;;;;;5.07;2.00;;;30.00;61.10;;;;;;5186117;27;27435;-61
2021/07/18 09:49:35;;;;;;;6.13;2.50;;;30.10;61.00;;;;;;5171084;27;27302;-61
2021/07/18 09:52:27;;;;;;;4.10;2.17;;;30.20;64.10;;;;;;5188961;27;27468;-61
2021/07/18 09:55:20;;;;;;;4.10;2.10;;;30.30;62.30;;;;;;5190015;27;27435;-61
2021/07/18 09:58:05;;;;;;;5.78;2.03;;;30.40;61.90;;;;;;5171087;27;27334;-61
2021/07/18 10:00:49;;;;;;;5.57;3.20;;;30.50;62.50;;;;;;5159322;27;27639;-60
2021/07/18 10:03:34;;;;;;;3.30;2.20;;;30.80;63.60;;;;;;5185865;27;27413;-59
2021/07/18 10:06:20;;;;;;;3.80;2.17;;;31.00;62.80;;;;;;5189911;27;28044;-60
2021/07/18 10:09:09;;;;;;;3.53;1.90;;;31.00;62.20;;;;;;5189640;27;27391;-60
2021/07/18 10:11:54;;;;;;;9.02;2.65;;;31.10;62.30;;;;;;5185667;27;27454;-61
2021/07/18 10:14:39;;;;;;;5.57;2.20;;;31.30;62.10;;;;;;5185803;27;27405;-60
2021/07/18 10:17:24;;;;;;;4.82;2.17;;;31.40;60.90;;;;;;5173999;27;27852;-61
2021/07/18 10:20:09;;;;;;;7.53;2.05;;;31.50;60.40;;;;;;5188598;27;27544;-61
2021/07/18 10:22:55;;;;;;;4.18;2.05;;;31.40;60.70;;;;;;5173332;27;27418;-60
2021/07/18 10:25:40;;;;;;;6.88;2.03;;;31.40;59.00;;;;;;5189352;27;27403;-60
2021/07/18 10:28:25;;;;;;;5.18;2.13;;;31.40;61.90;;;;;;5188470;27;27493;-61
2021/07/18 10:31:43;;;;;;;5.05;1.90;;;31.30;62.90;;;;;;5188812;27;27475;-60
2021/07/18 10:34:29;;;;;;;6.00;1.90;;;31.50;59.80;;;;;;5184653;27;27358;-61
2021/07/18 10:37:13;;;;;;;3.45;1.90;;;31.60;60.40;;;;;;5170438;27;26937;-60
2021/07/18 10:39:58;;;;;;;5.82;2.05;;;31.60;62.10;;;;;;5189112;27;27318;-61
2021/07/18 10:42:43;;;;;;;4.70;2.33;;;31.70;59.80;;;;;;5188271;27;27346;-60
2021/07/18 10:45:28;;;;;;;4.78;2.13;;;31.70;59.10;;;;;;5170077;27;27367;-60
2021/07/18 10:48:13;;;;;;;4.70;2.20;;;31.70;59.60;;;;;;5185101;27;27379;-61
2021/07/18 10:50:58;;;;;;;7.40;2.28;;;31.70;58.60;;;;;;5188505;27;27365;-60
2021/07/18 10:53:43;;;;;;;3.65;1.98;;;31.80;57.90;;;;;;5189259;27;27386;-61
2021/07/18 10:57:20;;;;;;;3.05;1.58;;;31.80;57.80;;;;;;5189256;27;27412;-61
2021/07/18 11:00:26;;;;;;;2.08;1.80;;;31.70;60.70;;;;;;5184298;27;27357;-60
2021/07/18 11:03:11;;;;;;;5.68;2.50;;;31.90;60.90;;;;;;5184804;27;27407;-60
2021/07/18 11:05:56;;;;;;;6.70;1.75;;;31.90;56.40;;;;;;5173129;27;27422;-60
2021/07/18 11:09:05;;;;;;;4.80;1.73;;;31.90;44.40;;;;;;5187913;27;26942;-60
2021/07/18 11:11:52;;;;;;;4.18;1.73;;;31.90;45.80;;;;;;5188535;27;27499;-60
2021/07/18 11:14:37;;;;;;;5.75;1.70;;;31.90;49.40;;;;;;5188921;27;27391;-60
2021/07/18 11:17:28;;;;;;;4.30;1.85;;;32.10;52.40;;;;;;5188702;27;27398;-60
2021/07/18 11:20:13;;;;;;;3.70;1.80;;;32.20;55.80;;;;;;5184483;27;27469;-60
2021/07/18 11:23:01;;;;;;;8.27;2.13;;;32.30;56.70;;;;;;5184396;27;27482;-60
2021/07/18 11:25:53;;;;;;;4.75;2.28;;;32.40;57.30;;;;;;5187214;27;28057;-61
2021/07/18 11:31:34;;;;;;;5.90;2.70;;;32.50;57.80;;;;;;5188409;27;27417;-60
2021/07/18 11:34:19;;;;;;;2.95;2.05;;;32.60;58.00;;;;;;5169364;27;27463;-60
2021/07/18 11:37:06;;;;;;;3.63;2.00;;;32.60;58.00;;;;;;5188511;27;27968;-60
2021/07/18 11:39:51;;;;;;;3.70;2.38;;;32.60;57.00;;;;;;5187380;27;27483;-60
2021/07/18 11:42:36;;;;;;;4.07;1.98;;;32.60;58.00;;;;;;5188508;27;27418;-59
2021/07/18 11:45:21;;;;;;;5.32;2.13;;;32.60;58.30;;;;;;5187321;27;27414;-60
2021/07/18 11:48:06;;;;;;;6.10;2.47;;;32.60;56.40;;;;;;5187258;27;27484;-60
2021/07/18 11:50:51;;;;;;;3.03;1.92;;;32.50;59.10;;;;;;5188264;27;27580;-61
2021/07/18 11:53:36;;;;;;;5.40;2.17;;;32.60;59.30;;;;;;5187259;27;27458;-60
2021/07/18 11:56:25;;;;;;;5.85;2.10;;;32.50;57.90;;;;;;5187159;27;27422;-60
2021/07/18 11:59:20;;;;;;;3.35;2.17;;;32.50;57.20;;;;;;5187868;27;27392;-60
2021/07/18 12:02:06;;;;;;;3.97;1.88;;;32.40;58.80;;;;;;5187092;27;27454;-60
2021/07/18 12:04:51;;;;;;;2.78;2.15;;;32.40;60.70;;;;;;5188168;27;27373;-60
2021/07/18 12:07:47;;;;;;;3.55;2.20;;;32.30;59.90;;;;;;5172700;27;27392;-62
2021/07/18 12:11:04;;;;;;;5.43;2.00;;;32.30;61.90;;;;;;5187136;27;27530;-60
2021/07/18 12:14:34;;;;;;;3.10;2.05;;;32.30;63.50;;;;;;5172997;27;27387;-61
2021/07/18 12:17:40;;;;;;;4.53;2.35;;;32.40;62.20;;;;;;5170509;27;27418;-61
2021/07/18 12:20:35;;;;;;;3.53;1.85;;;32.40;62.40;;;;;;5172085;27;27646;-62
2021/07/18 12:23:31;;;;;;;3.45;2.45;;;32.40;61.70;;;;;;5186905;27;27330;-61
2021/07/18 12:26:23;;;;;;;3.03;1.98;;;32.40;62.70;;;;;;5169272;27;27526;-62
2021/07/18 12:29:29;;;;;;;3.85;2.00;;;32.50;62.50;;;;;;5172400;27;27395;-62
2021/07/18 12:32:39;;;;;;;5.13;2.20;;;32.50;60.60;;;;;;5172946;27;27464;-62
2021/07/18 12:35:36;;;;;;;2.22;1.92;;;32.40;59.40;;;;;;5187437;27;27424;-62
2021/07/18 12:38:43;;;;;;;3.47;2.10;;;32.40;61.20;;;;;;5187794;27;27402;-61
2021/07/18 12:41:42;;;;;;;3.20;2.25;;;32.30;63.50;;;;;;5172655;27;27388;-61
2021/07/18 12:45:06;;;;;;;3.47;1.90;;;32.30;64.40;;;;;;5187721;27;27463;-62
2021/07/18 12:48:51;;;;;;;3.80;2.35;;;32.30;62.50;;;;;;5182462;27;27454;-61
2021/07/18 12:56:02;;;;;;;7.95;2.95;;;32.10;63.40;;;;;;5187321;27;27580;-62
2021/07/18 12:59:38;;;;;;;11.23;3.00;;;31.90;46.50;;;;;;5176276;27;27487;-62
2021/07/18 13:03:05;;;;;;;7.45;2.70;;;31.80;46.40;;;;;;5147991;27;27880;-59
2021/07/18 13:06:21;;;;;;;7.78;3.22;;;31.70;50.50;;;;;;5148965;27;27565;-59
2021/07/18 13:09:25;;;;;;;5.93;3.65;;;31.50;46.00;;;;;;5130205;27;27405;-60
2021/07/18 13:12:29;;;;;;;6.13;4.38;;;31.40;44.40;;;;;;5135979;27;27419;-57
2021/07/18 13:15:20;;;;;;;5.65;3.45;;;31.20;46.30;;;;;;5147821;27;27843;-59
2021/07/18 13:18:06;;;;;;;5.45;3.60;;;31.20;52.40;;;;;;5148792;27;27382;-58
2021/07/18 13:20:51;;;;;;;6.68;4.72;;;31.10;56.10;;;;;;5148511;27;27327;-58
2021/07/18 13:23:39;;;;;;;5.93;4.13;;;31.00;57.70;;;;;;5148040;27;27390;-58
2021/07/18 13:26:34;;;;;;;8.73;4.93;;;31.00;60.50;;;;;;5148564;27;27476;-58
2021/07/18 13:29:20;;;;;;;5.15;4.40;;;31.00;61.30;;;;;;5144178;27;27491;-58
2021/07/18 13:32:10;;;;;;;9.30;5.32;;;31.10;61.80;;;;;;5148129;27;26901;-58
2021/07/18 13:35:00;;;;;;;6.10;5.07;;;31.10;60.80;;;;;;5148283;27;27384;-58
2021/07/18 13:37:58;;;;;;;9.80;7.10;;;31.00;59.90;;;;;;5147451;27;27468;-58
2021/07/18 13:40:43;;;;;;;8.48;5.95;;;30.90;59.50;;;;;;5143997;27;27373;-58
2021/07/18 13:43:28;;;;;;;10.25;5.93;;;30.80;61.60;;;;;;5147286;27;27456;-58
2021/07/18 13:46:13;;;;;;;9.43;5.78;;;30.70;64.00;;;;;;5147383;27;27391;-58
2021/07/18 13:48:57;;;;;;;9.00;6.55;;;30.70;64.70;;;;;;5144316;27;27365;-58
2021/07/18 13:51:42;;;;;;;8.73;7.38;;;30.70;66.60;;;;;;5148030;27;26965;-58
2021/07/18 13:54:28;;;;;;;14.95;9.27;;;30.70;67.30;;;;;;5147647;27;27400;-57
2021/07/18 13:57:15;;;;;;;14.63;8.65;;;30.80;66.90;;;;;;5146744;27;26926;-60
2021/07/18 14:00:01;;;;;;;11.55;8.73;;;30.80;66.30;;;;;;5153826;27;27871;-58
2021/07/18 14:02:46;;;;;;;12.50;9.07;;;30.80;63.20;;;;;;5189108;27;27399;-59
2021/07/18 14:05:31;;;;;;;14.98;9.95;;;30.70;64.60;;;;;;5189194;27;27400;-57
2021/07/18 14:08:16;;;;;;;14.05;9.40;;;30.70;64.80;;;;;;5189844;27;27386;-57
2021/07/18 14:11:01;;;;;;;11.18;9.43;;;30.70;64.90;;;;;;5189210;27;27374;-58
2021/07/18 14:13:46;;;;;;;15.90;10.70;;;30.70;66.60;;;;;;5189203;27;27424;-57
2021/07/18 14:16:30;;;;;;;13.70;10.52;;;30.70;68.00;;;;;;5189988;27;27318;-57
2021/07/18 14:19:15;;;;;;;14.57;10.30;;;30.70;62.00;;;;;;5170596;27;27397;-57
2021/07/18 14:22:00;;;;;;;11.77;10.13;;;30.70;61.00;;;;;;5189500;27;27390;-57
2021/07/18 14:24:44;;;;;;;14.07;11.27;;;30.60;63.50;;;;;;5188933;27;27342;-58
2021/07/18 14:27:29;;;;;;;15.23;10.85;;;30.70;64.70;;;;;;5188937;27;27416;-58
2021/07/18 14:30:16;;;;;;;13.88;9.75;;;30.60;62.40;;;;;;5189695;27;27383;-58
2021/07/18 14:33:01;;;;;;;13.27;10.15;;;30.50;61.40;;;;;;5188543;27;27314;-58
2021/07/18 14:35:46;;;;;;;12.05;10.25;;;30.50;64.60;;;;;;5189271;27;27518;-57
2021/07/18 14:38:31;;;;;;;13.88;10.05;;;30.40;66.60;;;;;;5173274;27;27443;-58
2021/07/18 14:41:16;;;;;;;14.82;10.88;;;30.40;64.60;;;;;;5170557;27;27371;-59
2021/07/18 14:44:00;;;;;;;14.57;10.30;;;30.40;63.10;;;;;;5185201;27;27380;-58
2021/07/18 14:46:45;;;;;;;14.00;10.43;;;30.40;65.90;;;;;;5189412;27;27360;-58
2021/07/18 14:49:30;;;;;;;14.80;11.88;;;30.50;66.40;;;;;;5188337;27;27396;-58
2021/07/18 14:52:15;;;;;;;17.38;12.40;;;30.60;64.20;;;;;;5184660;27;27391;-58